sensor_id;sensor_type;location;lat;lon;timestamp;P1;durP1;ratioP1;P2;durP2;ratioP2
9720;SDS011;4899;42.644;23.366;2023-03-15T00:00:02;4.07;;;3.00;;
9720;SDS011;4899;42.644;23.366;2023-03-15T00:02:28;3.30;;;2.90;;
9720;SDS011;4899;42.644;23.366;2023-03-15T00:04:53;3.90;;;3.30;;
9720;SDS011;4899;42.644;23.366;2023-03-15T00:07:19;4.07;;;3.00;;
9720;SDS011;4899;42.644;23.366;2023-03-15T00:09:49;4.30;;;3.50;;
9720;SDS011;4899;42.644;23.366;2023-03-15T00:12:18;5.00;;;2.93;;
9720;SDS011;4899;42.644;23.366;2023-03-15T00:14:46;4.00;;;2.90;;
9720;SDS011;4899;42.644;23.366;2023-03-15T00:17:12;4.70;;;3.10;;
9720;SDS011;4899;42.644;23.366;2023-03-15T00:19:37;4.33;;;2.93;;
9720;SDS011;4899;42.644;23.366;2023-03-15T00:22:03;4.10;;;2.90;;
9720;SDS011;4899;42.644;23.366;2023-03-15T00:24:29;3.87;;;2.77;;
9720;SDS011;4899;42.644;23.366;2023-03-15T00:26:54;3.43;;;3.00;;
9720;SDS011;4899;42.644;23.366;2023-03-15T00:29:19;5.37;;;3.27;;
9720;SDS011;4899;42.644;23.366;2023-03-15T00:31:45;4.87;;;3.30;;
9720;SDS011;4899;42.644;23.366;2023-03-15T00:34:10;4.03;;;3.60;;
9720;SDS011;4899;42.644;23.366;2023-03-15T00:36:38;9.63;;;5.77;;
9720;SDS011;4899;42.644;23.366;2023-03-15T00:39:07;9.77;;;8.23;;
9720;SDS011;4899;42.644;23.366;2023-03-15T00:41:33;11.63;;;7.73;;
9720;SDS011;4899;42.644;23.366;2023-03-15T00:43:59;10.30;;;7.40;;
9720;SDS011;4899;42.644;23.366;2023-03-15T00:46:24;10.50;;;8.50;;
9720;SDS011;4899;42.644;23.366;2023-03-15T00:48:50;10.43;;;8.10;;
9720;SDS011;4899;42.644;23.366;2023-03-15T00:51:17;10.43;;;7.33;;
9720;SDS011;4899;42.644;23.366;2023-03-15T00:53:46;10.30;;;8.20;;
9720;SDS011;4899;42.644;23.366;2023-03-15T00:56:14;9.87;;;7.80;;
9720;SDS011;4899;42.644;23.366;2023-03-15T00:58:44;11.80;;;8.33;;
9720;SDS011;4899;42.644;23.366;2023-03-15T01:03:42;12.50;;;8.87;;
9720;SDS011;4899;42.644;23.366;2023-03-15T01:06:10;12.57;;;9.13;;
9720;SDS011;4899;42.644;23.366;2023-03-15T01:08:37;13.73;;;8.83;;
9720;SDS011;4899;42.644;23.366;2023-03-15T01:11:03;10.33;;;8.50;;
9720;SDS011;4899;42.644;23.366;2023-03-15T01:13:31;13.57;;;8.70;;
9720;SDS011;4899;42.644;23.366;2023-03-15T01:15:57;12.87;;;8.30;;
9720;SDS011;4899;42.644;23.366;2023-03-15T01:18:23;11.13;;;7.67;;
9720;SDS011;4899;42.644;23.366;2023-03-15T01:20:48;11.80;;;8.50;;
9720;SDS011;4899;42.644;23.366;2023-03-15T01:23:15;10.03;;;7.43;;
9720;SDS011;4899;42.644;23.366;2023-03-15T01:25:40;10.73;;;8.27;;
9720;SDS011;4899;42.644;23.366;2023-03-15T01:28:06;8.90;;;7.23;;
9720;SDS011;4899;42.644;23.366;2023-03-15T01:30:31;10.93;;;6.70;;
9720;SDS011;4899;42.644;23.366;2023-03-15T01:32:57;11.20;;;7.03;;
9720;SDS011;4899;42.644;23.366;2023-03-15T01:35:22;10.77;;;7.90;;
9720;SDS011;4899;42.644;23.366;2023-03-15T01:37:48;9.90;;;7.93;;
9720;SDS011;4899;42.644;23.366;2023-03-15T01:40:15;12.20;;;8.30;;
9720;SDS011;4899;42.644;23.366;2023-03-15T01:42:53;11.77;;;7.70;;
9720;SDS011;4899;42.644;23.366;2023-03-15T01:48:48;9.27;;;7.50;;
9720;SDS011;4899;42.644;23.366;2023-03-15T01:51:23;12.97;;;8.27;;
9720;SDS011;4899;42.644;23.366;2023-03-15T01:54:06;11.10;;;7.80;;
9720;SDS011;4899;42.644;23.366;2023-03-15T01:56:39;12.40;;;8.47;;
9720;SDS011;4899;42.644;23.366;2023-03-15T01:59:12;12.10;;;7.90;;
9720;SDS011;4899;42.644;23.366;2023-03-15T02:01:42;12.77;;;8.97;;
9720;SDS011;4899;42.644;23.366;2023-03-15T02:04:10;12.97;;;8.17;;
9720;SDS011;4899;42.644;23.366;2023-03-15T02:06:41;9.13;;;7.90;;
9720;SDS011;4899;42.644;23.366;2023-03-15T02:09:10;9.00;;;7.87;;
9720;SDS011;4899;42.644;23.366;2023-03-15T02:11:39;11.27;;;8.20;;
9720;SDS011;4899;42.644;23.366;2023-03-15T02:14:05;13.23;;;8.13;;
9720;SDS011;4899;42.644;23.366;2023-03-15T02:16:45;10.90;;;8.47;;
9720;SDS011;4899;42.644;23.366;2023-03-15T02:19:18;10.63;;;7.70;;
9720;SDS011;4899;42.644;23.366;2023-03-15T02:21:59;10.67;;;7.60;;
9720;SDS011;4899;42.644;23.366;2023-03-15T02:24:39;9.37;;;8.33;;
9720;SDS011;4899;42.644;23.366;2023-03-15T02:27:31;11.83;;;7.97;;
9720;SDS011;4899;42.644;23.366;2023-03-15T02:30:05;12.03;;;8.17;;
9720;SDS011;4899;42.644;23.366;2023-03-15T02:32:33;9.33;;;7.57;;
9720;SDS011;4899;42.644;23.366;2023-03-15T02:34:59;9.97;;;8.10;;
9720;SDS011;4899;42.644;23.366;2023-03-15T02:37:24;9.67;;;7.23;;
9720;SDS011;4899;42.644;23.366;2023-03-15T02:39:49;9.97;;;7.03;;
9720;SDS011;4899;42.644;23.366;2023-03-15T02:42:15;9.77;;;7.90;;
9720;SDS011;4899;42.644;23.366;2023-03-15T02:44:45;9.37;;;7.67;;
9720;SDS011;4899;42.644;23.366;2023-03-15T02:47:14;12.57;;;7.77;;
9720;SDS011;4899;42.644;23.366;2023-03-15T02:49:45;11.70;;;7.47;;
9720;SDS011;4899;42.644;23.366;2023-03-15T02:52:14;12.13;;;7.70;;
9720;SDS011;4899;42.644;23.366;2023-03-15T02:54:40;8.63;;;7.33;;
9720;SDS011;4899;42.644;23.366;2023-03-15T02:57:10;9.40;;;7.43;;
9720;SDS011;4899;42.644;23.366;2023-03-15T02:59:52;11.17;;;8.30;;
9720;SDS011;4899;42.644;23.366;2023-03-15T03:02:19;9.13;;;7.47;;
9720;SDS011;4899;42.644;23.366;2023-03-15T03:04:45;13.50;;;8.33;;
9720;SDS011;4899;42.644;23.366;2023-03-15T03:07:10;14.33;;;7.67;;
9720;SDS011;4899;42.644;23.366;2023-03-15T03:09:37;10.63;;;7.90;;
9720;SDS011;4899;42.644;23.366;2023-03-15T03:12:02;11.63;;;7.53;;
9720;SDS011;4899;42.644;23.366;2023-03-15T03:14:28;10.23;;;7.17;;
9720;SDS011;4899;42.644;23.366;2023-03-15T03:16:53;19.57;;;7.47;;
9720;SDS011;4899;42.644;23.366;2023-03-15T03:19:19;11.67;;;7.60;;
9720;SDS011;4899;42.644;23.366;2023-03-15T03:21:49;9.00;;;6.87;;
9720;SDS011;4899;42.644;23.366;2023-03-15T03:24:18;7.97;;;5.97;;
9720;SDS011;4899;42.644;23.366;2023-03-15T03:26:44;10.00;;;5.97;;
9720;SDS011;4899;42.644;23.366;2023-03-15T03:29:11;11.60;;;5.60;;
9720;SDS011;4899;42.644;23.366;2023-03-15T03:31:40;6.13;;;5.07;;
9720;SDS011;4899;42.644;23.366;2023-03-15T03:34:07;7.90;;;5.40;;
9720;SDS011;4899;42.644;23.366;2023-03-15T03:36:39;6.40;;;5.10;;
9720;SDS011;4899;42.644;23.366;2023-03-15T03:39:05;10.00;;;6.53;;
9720;SDS011;4899;42.644;23.366;2023-03-15T03:41:30;6.23;;;5.57;;
9720;SDS011;4899;42.644;23.366;2023-03-15T03:43:56;7.57;;;5.30;;
9720;SDS011;4899;42.644;23.366;2023-03-15T03:46:22;9.60;;;6.10;;
9720;SDS011;4899;42.644;23.366;2023-03-15T03:48:48;7.90;;;5.83;;
9720;SDS011;4899;42.644;23.366;2023-03-15T03:51:15;6.23;;;5.63;;
9720;SDS011;4899;42.644;23.366;2023-03-15T03:53:40;9.43;;;7.40;;
9720;SDS011;4899;42.644;23.366;2023-03-15T03:56:07;7.70;;;6.90;;
9720;SDS011;4899;42.644;23.366;2023-03-15T03:58:33;9.13;;;6.60;;
9720;SDS011;4899;42.644;23.366;2023-03-15T04:00:59;7.27;;;5.90;;
9720;SDS011;4899;42.644;23.366;2023-03-15T04:03:24;10.97;;;7.17;;
9720;SDS011;4899;42.644;23.366;2023-03-15T04:05:54;13.93;;;6.63;;
9720;SDS011;4899;42.644;23.366;2023-03-15T04:08:21;9.87;;;7.23;;
9720;SDS011;4899;42.644;23.366;2023-03-15T04:10:55;10.37;;;7.30;;
9720;SDS011;4899;42.644;23.366;2023-03-15T04:13:21;12.40;;;7.23;;
9720;SDS011;4899;42.644;23.366;2023-03-15T04:15:49;11.47;;;7.60;;
9720;SDS011;4899;42.644;23.366;2023-03-15T04:18:15;12.07;;;7.50;;
9720;SDS011;4899;42.644;23.366;2023-03-15T04:20:43;10.37;;;6.87;;
9720;SDS011;4899;42.644;23.366;2023-03-15T04:23:11;13.20;;;7.60;;
9720;SDS011;4899;42.644;23.366;2023-03-15T04:25:38;9.83;;;7.50;;
9720;SDS011;4899;42.644;23.366;2023-03-15T04:28:03;14.97;;;8.77;;
9720;SDS011;4899;42.644;23.366;2023-03-15T04:30:29;14.37;;;7.13;;
9720;SDS011;4899;42.644;23.366;2023-03-15T04:32:55;11.90;;;8.67;;
9720;SDS011;4899;42.644;23.366;2023-03-15T04:35:28;16.60;;;9.47;;
9720;SDS011;4899;42.644;23.366;2023-03-15T04:37:56;12.97;;;9.10;;
9720;SDS011;4899;42.644;23.366;2023-03-15T04:40:22;14.47;;;9.23;;
9720;SDS011;4899;42.644;23.366;2023-03-15T04:42:52;14.47;;;10.67;;
9720;SDS011;4899;42.644;23.366;2023-03-15T04:45:21;17.47;;;10.77;;
9720;SDS011;4899;42.644;23.366;2023-03-15T04:47:48;13.77;;;10.27;;
9720;SDS011;4899;42.644;23.366;2023-03-15T04:50:14;14.67;;;9.43;;
9720;SDS011;4899;42.644;23.366;2023-03-15T04:52:41;14.10;;;8.70;;
9720;SDS011;4899;42.644;23.366;2023-03-15T04:55:07;13.73;;;9.63;;
9720;SDS011;4899;42.644;23.366;2023-03-15T04:57:33;15.13;;;11.03;;
9720;SDS011;4899;42.644;23.366;2023-03-15T04:59:59;18.30;;;11.20;;
9720;SDS011;4899;42.644;23.366;2023-03-15T05:02:24;15.23;;;9.97;;
9720;SDS011;4899;42.644;23.366;2023-03-15T05:04:50;13.87;;;9.27;;
9720;SDS011;4899;42.644;23.366;2023-03-15T05:07:15;14.47;;;9.83;;
9720;SDS011;4899;42.644;23.366;2023-03-15T05:09:41;13.93;;;9.77;;
9720;SDS011;4899;42.644;23.366;2023-03-15T05:12:10;12.37;;;8.47;;
9720;SDS011;4899;42.644;23.366;2023-03-15T05:14:36;11.87;;;8.60;;
9720;SDS011;4899;42.644;23.366;2023-03-15T05:17:02;12.90;;;9.03;;
9720;SDS011;4899;42.644;23.366;2023-03-15T05:19:28;11.00;;;7.97;;
9720;SDS011;4899;42.644;23.366;2023-03-15T05:21:53;11.90;;;7.57;;
9720;SDS011;4899;42.644;23.366;2023-03-15T05:24:20;10.50;;;7.70;;
9720;SDS011;4899;42.644;23.366;2023-03-15T05:26:46;10.90;;;8.27;;
9720;SDS011;4899;42.644;23.366;2023-03-15T05:29:12;15.47;;;8.73;;
9720;SDS011;4899;42.644;23.366;2023-03-15T05:31:38;12.67;;;8.97;;
9720;SDS011;4899;42.644;23.366;2023-03-15T05:34:10;11.40;;;7.60;;
9720;SDS011;4899;42.644;23.366;2023-03-15T05:36:36;11.10;;;6.50;;
9720;SDS011;4899;42.644;23.366;2023-03-15T05:39:02;10.53;;;7.60;;
9720;SDS011;4899;42.644;23.366;2023-03-15T05:41:28;8.20;;;6.87;;
9720;SDS011;4899;42.644;23.366;2023-03-15T05:44:02;9.87;;;8.27;;
9720;SDS011;4899;42.644;23.366;2023-03-15T05:46:27;10.37;;;7.03;;
9720;SDS011;4899;42.644;23.366;2023-03-15T05:48:53;13.53;;;6.23;;
9720;SDS011;4899;42.644;23.366;2023-03-15T05:51:19;12.67;;;6.53;;
9720;SDS011;4899;42.644;23.366;2023-03-15T05:53:45;8.03;;;6.93;;
9720;SDS011;4899;42.644;23.366;2023-03-15T05:56:11;9.67;;;7.87;;
9720;SDS011;4899;42.644;23.366;2023-03-15T05:58:36;15.90;;;8.70;;
9720;SDS011;4899;42.644;23.366;2023-03-15T06:01:02;8.57;;;7.03;;
9720;SDS011;4899;42.644;23.366;2023-03-15T06:03:29;6.87;;;5.97;;
9720;SDS011;4899;42.644;23.366;2023-03-15T06:05:55;7.30;;;5.67;;
9720;SDS011;4899;42.644;23.366;2023-03-15T06:08:22;6.60;;;5.87;;
9720;SDS011;4899;42.644;23.366;2023-03-15T06:10:47;10.37;;;7.10;;
9720;SDS011;4899;42.644;23.366;2023-03-15T06:13:12;10.50;;;7.50;;
9720;SDS011;4899;42.644;23.366;2023-03-15T06:15:38;8.90;;;6.67;;
9720;SDS011;4899;42.644;23.366;2023-03-15T06:18:03;10.23;;;7.60;;
9720;SDS011;4899;42.644;23.366;2023-03-15T06:20:30;8.87;;;6.83;;
9720;SDS011;4899;42.644;23.366;2023-03-15T06:22:56;7.83;;;5.70;;
9720;SDS011;4899;42.644;23.366;2023-03-15T06:25:22;7.60;;;5.63;;
9720;SDS011;4899;42.644;23.366;2023-03-15T06:27:48;7.93;;;5.07;;
9720;SDS011;4899;42.644;23.366;2023-03-15T06:30:13;6.07;;;4.83;;
9720;SDS011;4899;42.644;23.366;2023-03-15T06:32:39;6.87;;;5.37;;
9720;SDS011;4899;42.644;23.366;2023-03-15T06:35:04;7.00;;;5.37;;
9720;SDS011;4899;42.644;23.366;2023-03-15T06:37:30;6.97;;;4.83;;
9720;SDS011;4899;42.644;23.366;2023-03-15T06:39:56;7.30;;;4.50;;
9720;SDS011;4899;42.644;23.366;2023-03-15T06:42:21;10.27;;;4.97;;
9720;SDS011;4899;42.644;23.366;2023-03-15T06:44:47;6.17;;;4.27;;
9720;SDS011;4899;42.644;23.366;2023-03-15T06:47:12;4.60;;;4.03;;
9720;SDS011;4899;42.644;23.366;2023-03-15T06:49:38;8.37;;;4.63;;
9720;SDS011;4899;42.644;23.366;2023-03-15T06:52:04;8.43;;;4.70;;
9720;SDS011;4899;42.644;23.366;2023-03-15T06:54:30;4.63;;;4.10;;
9720;SDS011;4899;42.644;23.366;2023-03-15T06:56:56;6.53;;;3.77;;
9720;SDS011;4899;42.644;23.366;2023-03-15T06:59:22;5.20;;;3.50;;
9720;SDS011;4899;42.644;23.366;2023-03-15T07:01:47;4.83;;;3.67;;
9720;SDS011;4899;42.644;23.366;2023-03-15T07:04:13;5.00;;;3.90;;
9720;SDS011;4899;42.644;23.366;2023-03-15T07:06:38;5.87;;;3.93;;
9720;SDS011;4899;42.644;23.366;2023-03-15T07:09:04;5.83;;;3.77;;
9720;SDS011;4899;42.644;23.366;2023-03-15T07:11:30;4.97;;;3.70;;
9720;SDS011;4899;42.644;23.366;2023-03-15T07:13:55;7.73;;;4.13;;
9720;SDS011;4899;42.644;23.366;2023-03-15T07:16:22;4.60;;;4.10;;
9720;SDS011;4899;42.644;23.366;2023-03-15T07:18:48;7.63;;;5.37;;
9720;SDS011;4899;42.644;23.366;2023-03-15T07:21:14;6.63;;;5.30;;
9720;SDS011;4899;42.644;23.366;2023-03-15T07:23:40;11.60;;;6.70;;
9720;SDS011;4899;42.644;23.366;2023-03-15T07:26:05;12.77;;;7.10;;
9720;SDS011;4899;42.644;23.366;2023-03-15T07:28:31;12.87;;;7.00;;
9720;SDS011;4899;42.644;23.366;2023-03-15T07:30:57;10.07;;;7.33;;
9720;SDS011;4899;42.644;23.366;2023-03-15T07:33:24;11.70;;;6.87;;
9720;SDS011;4899;42.644;23.366;2023-03-15T07:35:51;12.00;;;6.73;;
9720;SDS011;4899;42.644;23.366;2023-03-15T07:38:23;6.57;;;5.33;;
9720;SDS011;4899;42.644;23.366;2023-03-15T07:40:52;8.47;;;6.10;;
9720;SDS011;4899;42.644;23.366;2023-03-15T07:43:18;6.63;;;6.00;;
9720;SDS011;4899;42.644;23.366;2023-03-15T07:45:44;8.20;;;5.53;;
9720;SDS011;4899;42.644;23.366;2023-03-15T07:48:10;9.60;;;6.00;;
9720;SDS011;4899;42.644;23.366;2023-03-15T07:50:35;8.77;;;5.47;;
9720;SDS011;4899;42.644;23.366;2023-03-15T07:53:02;6.37;;;5.43;;
9720;SDS011;4899;42.644;23.366;2023-03-15T07:55:33;7.37;;;4.63;;
9720;SDS011;4899;42.644;23.366;2023-03-15T07:57:59;8.50;;;4.80;;
9720;SDS011;4899;42.644;23.366;2023-03-15T08:00:25;9.37;;;5.23;;
9720;SDS011;4899;42.644;23.366;2023-03-15T08:02:51;7.90;;;4.70;;
9720;SDS011;4899;42.644;23.366;2023-03-15T08:05:16;6.17;;;4.23;;
9720;SDS011;4899;42.644;23.366;2023-03-15T08:07:46;5.03;;;3.77;;
9720;SDS011;4899;42.644;23.366;2023-03-15T08:10:12;9.07;;;4.60;;
9720;SDS011;4899;42.644;23.366;2023-03-15T08:12:39;4.97;;;3.80;;
9720;SDS011;4899;42.644;23.366;2023-03-15T08:15:08;7.90;;;4.30;;
9720;SDS011;4899;42.644;23.366;2023-03-15T08:17:37;6.23;;;4.10;;
9720;SDS011;4899;42.644;23.366;2023-03-15T08:20:03;5.37;;;4.37;;
9720;SDS011;4899;42.644;23.366;2023-03-15T08:22:30;11.00;;;5.47;;
9720;SDS011;4899;42.644;23.366;2023-03-15T08:24:55;6.73;;;4.47;;
9720;SDS011;4899;42.644;23.366;2023-03-15T08:27:22;7.13;;;4.60;;
9720;SDS011;4899;42.644;23.366;2023-03-15T08:29:48;7.57;;;4.27;;
9720;SDS011;4899;42.644;23.366;2023-03-15T08:32:16;8.63;;;4.57;;
9720;SDS011;4899;42.644;23.366;2023-03-15T08:34:42;4.87;;;4.47;;
9720;SDS011;4899;42.644;23.366;2023-03-15T08:37:08;7.73;;;4.43;;
9720;SDS011;4899;42.644;23.366;2023-03-15T08:39:35;6.77;;;4.80;;
9720;SDS011;4899;42.644;23.366;2023-03-15T08:42:01;8.37;;;5.23;;
9720;SDS011;4899;42.644;23.366;2023-03-15T08:44:27;7.33;;;4.07;;
9720;SDS011;4899;42.644;23.366;2023-03-15T08:46:52;5.73;;;4.10;;
9720;SDS011;4899;42.644;23.366;2023-03-15T08:49:18;6.20;;;4.37;;
9720;SDS011;4899;42.644;23.366;2023-03-15T08:51:43;7.30;;;4.43;;
9720;SDS011;4899;42.644;23.366;2023-03-15T08:54:09;7.90;;;4.30;;
9720;SDS011;4899;42.644;23.366;2023-03-15T08:56:34;5.67;;;4.23;;
9720;SDS011;4899;42.644;23.366;2023-03-15T08:59:00;9.60;;;4.63;;
9720;SDS011;4899;42.644;23.366;2023-03-15T09:01:25;5.87;;;4.03;;
9720;SDS011;4899;42.644;23.366;2023-03-15T09:03:51;5.47;;;4.17;;
9720;SDS011;4899;42.644;23.366;2023-03-15T09:06:16;7.30;;;4.77;;
9720;SDS011;4899;42.644;23.366;2023-03-15T09:08:42;7.50;;;4.07;;
9720;SDS011;4899;42.644;23.366;2023-03-15T09:11:07;6.23;;;4.63;;
9720;SDS011;4899;42.644;23.366;2023-03-15T09:13:32;5.80;;;4.97;;
9720;SDS011;4899;42.644;23.366;2023-03-15T09:15:58;8.33;;;4.43;;
9720;SDS011;4899;42.644;23.366;2023-03-15T09:18:23;7.40;;;5.00;;
9720;SDS011;4899;42.644;23.366;2023-03-15T09:20:49;5.97;;;4.20;;
9720;SDS011;4899;42.644;23.366;2023-03-15T09:23:15;5.10;;;4.10;;
9720;SDS011;4899;42.644;23.366;2023-03-15T09:25:40;5.90;;;4.57;;
9720;SDS011;4899;42.644;23.366;2023-03-15T09:28:06;10.50;;;6.87;;
9720;SDS011;4899;42.644;23.366;2023-03-15T09:30:34;5.80;;;3.90;;
9720;SDS011;4899;42.644;23.366;2023-03-15T09:33:01;7.10;;;4.37;;
9720;SDS011;4899;42.644;23.366;2023-03-15T09:35:26;6.57;;;4.40;;
9720;SDS011;4899;42.644;23.366;2023-03-15T09:37:51;10.27;;;4.47;;
9720;SDS011;4899;42.644;23.366;2023-03-15T09:40:23;6.67;;;5.13;;
9720;SDS011;4899;42.644;23.366;2023-03-15T09:48:48;7.80;;;4.43;;
9720;SDS011;4899;42.644;23.366;2023-03-15T09:51:25;6.00;;;4.13;;
9720;SDS011;4899;42.644;23.366;2023-03-15T09:54:13;8.90;;;5.03;;
9720;SDS011;4899;42.644;23.366;2023-03-15T09:56:53;8.63;;;4.67;;
9720;SDS011;4899;42.644;23.366;2023-03-15T09:59:19;8.53;;;4.70;;
9720;SDS011;4899;42.644;23.366;2023-03-15T10:01:47;7.70;;;5.30;;
9720;SDS011;4899;42.644;23.366;2023-03-15T10:06:41;6.97;;;4.80;;
9720;SDS011;4899;42.644;23.366;2023-03-15T10:09:12;6.33;;;4.73;;
9720;SDS011;4899;42.644;23.366;2023-03-15T10:20:10;9.30;;;4.20;;
9720;SDS011;4899;42.644;23.366;2023-03-15T10:22:43;7.67;;;4.50;;
9720;SDS011;4899;42.644;23.366;2023-03-15T10:25:18;5.70;;;3.83;;
9720;SDS011;4899;42.644;23.366;2023-03-15T10:27:54;4.10;;;3.50;;
9720;SDS011;4899;42.644;23.366;2023-03-15T10:30:29;4.33;;;3.70;;
9720;SDS011;4899;42.644;23.366;2023-03-15T10:35:28;4.40;;;3.87;;
9720;SDS011;4899;42.644;23.366;2023-03-15T10:37:53;6.20;;;3.70;;
9720;SDS011;4899;42.644;23.366;2023-03-15T10:43:11;3.27;;;3.00;;
9720;SDS011;4899;42.644;23.366;2023-03-15T10:45:46;5.07;;;3.90;;
9720;SDS011;4899;42.644;23.366;2023-03-15T10:48:23;5.37;;;3.63;;
9720;SDS011;4899;42.644;23.366;2023-03-15T10:50:49;5.83;;;3.63;;
9720;SDS011;4899;42.644;23.366;2023-03-15T10:53:16;4.33;;;3.43;;
9720;SDS011;4899;42.644;23.366;2023-03-15T10:55:46;6.60;;;3.40;;
9720;SDS011;4899;42.644;23.366;2023-03-15T11:00:47;6.40;;;3.53;;
9720;SDS011;4899;42.644;23.366;2023-03-15T11:03:16;3.93;;;3.50;;
9720;SDS011;4899;42.644;23.366;2023-03-15T11:05:49;5.20;;;3.90;;
9720;SDS011;4899;42.644;23.366;2023-03-15T11:08:23;4.17;;;3.77;;
9720;SDS011;4899;42.644;23.366;2023-03-15T11:11:09;5.40;;;3.60;;
9720;SDS011;4899;42.644;23.366;2023-03-15T11:13:39;7.00;;;3.83;;
9720;SDS011;4899;42.644;23.366;2023-03-15T11:21:09;5.13;;;3.97;;
9720;SDS011;4899;42.644;23.366;2023-03-15T11:23:39;7.50;;;3.83;;
9720;SDS011;4899;42.644;23.366;2023-03-15T11:26:17;5.27;;;4.03;;
9720;SDS011;4899;42.644;23.366;2023-03-15T11:28:49;6.10;;;3.90;;
9720;SDS011;4899;42.644;23.366;2023-03-15T11:31:23;3.80;;;3.50;;
9720;SDS011;4899;42.644;23.366;2023-03-15T11:34:01;4.90;;;3.70;;
9720;SDS011;4899;42.644;23.366;2023-03-15T11:36:32;8.40;;;3.70;;
9720;SDS011;4899;42.644;23.366;2023-03-15T11:39:03;6.07;;;4.07;;
9720;SDS011;4899;42.644;23.366;2023-03-15T11:41:37;4.50;;;3.80;;
9720;SDS011;4899;42.644;23.366;2023-03-15T11:44:32;5.37;;;4.30;;
9720;SDS011;4899;42.644;23.366;2023-03-15T11:47:19;6.43;;;4.07;;
9720;SDS011;4899;42.644;23.366;2023-03-15T11:49:52;8.17;;;3.90;;
9720;SDS011;4899;42.644;23.366;2023-03-15T11:52:20;5.63;;;3.80;;
9720;SDS011;4899;42.644;23.366;2023-03-15T11:54:48;6.97;;;3.60;;
9720;SDS011;4899;42.644;23.366;2023-03-15T12:11:10;4.93;;;3.70;;
9720;SDS011;4899;42.644;23.366;2023-03-15T12:14:19;5.40;;;3.40;;
9720;SDS011;4899;42.644;23.366;2023-03-15T12:16:45;4.67;;;3.87;;
9720;SDS011;4899;42.644;23.366;2023-03-15T12:19:18;4.13;;;3.73;;
9720;SDS011;4899;42.644;23.366;2023-03-15T12:21:52;6.67;;;4.47;;
9720;SDS011;4899;42.644;23.366;2023-03-15T12:24:22;7.47;;;4.37;;
9720;SDS011;4899;42.644;23.366;2023-03-15T12:27:02;7.00;;;4.30;;
9720;SDS011;4899;42.644;23.366;2023-03-15T12:29:39;9.10;;;3.70;;
9720;SDS011;4899;42.644;23.366;2023-03-15T12:32:10;4.87;;;3.60;;
9720;SDS011;4899;42.644;23.366;2023-03-15T12:34:53;4.20;;;3.80;;
9720;SDS011;4899;42.644;23.366;2023-03-15T12:39:53;6.77;;;3.70;;
9720;SDS011;4899;42.644;23.366;2023-03-15T12:44:55;5.17;;;3.90;;
9720;SDS011;4899;42.644;23.366;2023-03-15T12:55:42;7.77;;;4.27;;
9720;SDS011;4899;42.644;23.366;2023-03-15T12:58:11;6.60;;;3.83;;
9720;SDS011;4899;42.644;23.366;2023-03-15T13:00:40;5.13;;;3.37;;
9720;SDS011;4899;42.644;23.366;2023-03-15T13:03:09;5.40;;;3.83;;
9720;SDS011;4899;42.644;23.366;2023-03-15T13:08:30;8.50;;;3.63;;
9720;SDS011;4899;42.644;23.366;2023-03-15T13:11:43;5.07;;;3.90;;
9720;SDS011;4899;42.644;23.366;2023-03-15T13:14:20;5.13;;;3.80;;
9720;SDS011;4899;42.644;23.366;2023-03-15T13:19:42;7.23;;;4.43;;
9720;SDS011;4899;42.644;23.366;2023-03-15T13:22:30;8.03;;;5.70;;
9720;SDS011;4899;42.644;23.366;2023-03-15T13:25:19;9.87;;;6.07;;
9720;SDS011;4899;42.644;23.366;2023-03-15T13:30:31;12.30;;;6.03;;
9720;SDS011;4899;42.644;23.366;2023-03-15T13:35:33;10.93;;;5.83;;
9720;SDS011;4899;42.644;23.366;2023-03-15T13:40:50;8.07;;;4.67;;
9720;SDS011;4899;42.644;23.366;2023-03-15T13:43:16;11.73;;;5.93;;
9720;SDS011;4899;42.644;23.366;2023-03-15T13:45:41;5.67;;;4.27;;
9720;SDS011;4899;42.644;23.366;2023-03-15T13:48:07;6.87;;;3.90;;
9720;SDS011;4899;42.644;23.366;2023-03-15T13:50:33;7.03;;;4.27;;
9720;SDS011;4899;42.644;23.366;2023-03-15T13:52:59;10.53;;;4.33;;
9720;SDS011;4899;42.644;23.366;2023-03-15T13:55:26;17.13;;;5.30;;
9720;SDS011;4899;42.644;23.366;2023-03-15T13:57:56;5.37;;;3.80;;
9720;SDS011;4899;42.644;23.366;2023-03-15T14:00:24;4.70;;;4.20;;
9720;SDS011;4899;42.644;23.366;2023-03-15T14:02:56;7.27;;;5.43;;
9720;SDS011;4899;42.644;23.366;2023-03-15T14:05:33;8.93;;;5.17;;
9720;SDS011;4899;42.644;23.366;2023-03-15T14:08:19;8.83;;;4.70;;
9720;SDS011;4899;42.644;23.366;2023-03-15T14:13:33;8.20;;;5.47;;
9720;SDS011;4899;42.644;23.366;2023-03-15T14:16:13;11.80;;;5.80;;
9720;SDS011;4899;42.644;23.366;2023-03-15T14:18:40;8.10;;;4.83;;
9720;SDS011;4899;42.644;23.366;2023-03-15T14:21:14;7.03;;;5.13;;
9720;SDS011;4899;42.644;23.366;2023-03-15T14:23:42;11.50;;;6.20;;
9720;SDS011;4899;42.644;23.366;2023-03-15T14:26:16;13.50;;;6.47;;
9720;SDS011;4899;42.644;23.366;2023-03-15T14:31:50;7.67;;;5.77;;
9720;SDS011;4899;42.644;23.366;2023-03-15T14:34:32;7.23;;;5.37;;
9720;SDS011;4899;42.644;23.366;2023-03-15T14:36:59;9.00;;;5.50;;
9720;SDS011;4899;42.644;23.366;2023-03-15T14:42:00;7.17;;;5.37;;
9720;SDS011;4899;42.644;23.366;2023-03-15T14:44:26;5.70;;;4.67;;
9720;SDS011;4899;42.644;23.366;2023-03-15T14:46:52;5.80;;;4.23;;
9720;SDS011;4899;42.644;23.366;2023-03-15T14:49:24;6.73;;;4.60;;
9720;SDS011;4899;42.644;23.366;2023-03-15T14:51:52;11.07;;;4.63;;
9720;SDS011;4899;42.644;23.366;2023-03-15T14:54:24;6.27;;;4.30;;
9720;SDS011;4899;42.644;23.366;2023-03-15T14:56:50;9.53;;;4.40;;
9720;SDS011;4899;42.644;23.366;2023-03-15T14:59:16;8.53;;;4.63;;
9720;SDS011;4899;42.644;23.366;2023-03-15T15:01:43;16.53;;;7.40;;
9720;SDS011;4899;42.644;23.366;2023-03-15T15:04:13;28.27;;;8.90;;
9720;SDS011;4899;42.644;23.366;2023-03-15T15:06:39;12.03;;;7.53;;
9720;SDS011;4899;42.644;23.366;2023-03-15T15:09:25;14.07;;;6.13;;
9720;SDS011;4899;42.644;23.366;2023-03-15T15:11:52;11.20;;;5.80;;
9720;SDS011;4899;42.644;23.366;2023-03-15T15:14:19;16.30;;;6.77;;
9720;SDS011;4899;42.644;23.366;2023-03-15T15:16:48;16.03;;;6.60;;
9720;SDS011;4899;42.644;23.366;2023-03-15T15:19:14;10.07;;;5.23;;
9720;SDS011;4899;42.644;23.366;2023-03-15T15:21:40;11.13;;;5.47;;
9720;SDS011;4899;42.644;23.366;2023-03-15T15:24:17;7.50;;;5.40;;
9720;SDS011;4899;42.644;23.366;2023-03-15T15:26:44;8.10;;;4.87;;
9720;SDS011;4899;42.644;23.366;2023-03-15T15:29:11;6.03;;;4.77;;
9720;SDS011;4899;42.644;23.366;2023-03-15T15:31:38;6.33;;;4.53;;
9720;SDS011;4899;42.644;23.366;2023-03-15T15:34:03;6.90;;;5.03;;
9720;SDS011;4899;42.644;23.366;2023-03-15T15:36:31;8.53;;;5.13;;
9720;SDS011;4899;42.644;23.366;2023-03-15T15:38:58;5.60;;;4.70;;
9720;SDS011;4899;42.644;23.366;2023-03-15T15:41:28;7.50;;;5.10;;
9720;SDS011;4899;42.644;23.366;2023-03-15T15:43:55;11.03;;;5.37;;
9720;SDS011;4899;42.644;23.366;2023-03-15T15:46:25;8.70;;;5.30;;
9720;SDS011;4899;42.644;23.366;2023-03-15T15:48:50;7.47;;;5.10;;
9720;SDS011;4899;42.644;23.366;2023-03-15T15:51:26;8.80;;;4.80;;
9720;SDS011;4899;42.644;23.366;2023-03-15T15:54:00;6.07;;;4.83;;
9720;SDS011;4899;42.644;23.366;2023-03-15T15:56:32;9.03;;;4.67;;
9720;SDS011;4899;42.644;23.366;2023-03-15T15:59:03;8.07;;;5.03;;
9720;SDS011;4899;42.644;23.366;2023-03-15T16:01:31;5.87;;;5.13;;
9720;SDS011;4899;42.644;23.366;2023-03-15T16:03:56;12.57;;;4.83;;
9720;SDS011;4899;42.644;23.366;2023-03-15T16:06:23;10.37;;;5.50;;
9720;SDS011;4899;42.644;23.366;2023-03-15T16:08:49;8.27;;;4.90;;
9720;SDS011;4899;42.644;23.366;2023-03-15T16:11:16;10.20;;;5.67;;
9720;SDS011;4899;42.644;23.366;2023-03-15T16:13:43;12.47;;;5.27;;
9720;SDS011;4899;42.644;23.366;2023-03-15T16:16:13;11.30;;;6.30;;
9720;SDS011;4899;42.644;23.366;2023-03-15T16:18:40;9.57;;;5.30;;
9720;SDS011;4899;42.644;23.366;2023-03-15T16:21:08;10.73;;;6.20;;
9720;SDS011;4899;42.644;23.366;2023-03-15T16:23:37;9.90;;;6.03;;
9720;SDS011;4899;42.644;23.366;2023-03-15T16:26:03;9.83;;;5.50;;
9720;SDS011;4899;42.644;23.366;2023-03-15T16:28:29;9.53;;;5.57;;